createdAt,value
2019-04-04T00:03:34.988Z,4.97
2019-04-04T00:08:40.128Z,5.28
2019-04-04T00:13:45.370Z,4.90
2019-04-04T00:18:50.593Z,5.07
2019-04-04T00:23:55.860Z,5.40
2019-04-04T00:29:01.477Z,4.70
2019-04-04T00:34:07.311Z,5.33
2019-04-04T00:39:12.636Z,5.78
2019-04-04T00:44:17.922Z,4.93
2019-04-04T00:49:23.196Z,4.47
2019-04-04T00:54:28.805Z,3.47
2019-04-04T00:59:34.977Z,3.12
2019-04-04T01:04:41.213Z,2.83
2019-04-04T01:09:47.901Z,2.60
2019-04-04T01:14:54.855Z,2.50
2019-04-04T01:20:00.090Z,2.50
2019-04-04T01:25:05.708Z,2.20
2019-04-04T01:30:12.517Z,2.10
2019-04-04T01:35:17.867Z,1.80
2019-04-04T01:40:24.408Z,2.30
2019-04-04T01:45:29.681Z,1.90
2019-04-04T01:50:35.158Z,2.03
2019-04-04T01:55:40.428Z,2.22
2019-04-04T02:00:47.825Z,2.50
2019-04-04T02:05:53.427Z,2.37
2019-04-04T02:10:58.717Z,2.35
2019-04-04T02:16:03.945Z,2.10
2019-04-04T02:21:09.183Z,2.43
2019-04-04T02:26:14.980Z,2.60
2019-04-04T02:31:21.727Z,2.33
2019-04-04T02:36:27.297Z,2.37
2019-04-04T02:41:32.450Z,2.50
2019-04-04T02:46:38.264Z,2.50
2019-04-04T02:51:43.496Z,2.90
2019-04-04T02:56:49.393Z,2.60
2019-04-04T03:01:55.082Z,2.80
2019-04-04T03:07:00.516Z,2.87
2019-04-04T03:12:05.691Z,2.83
2019-04-04T03:17:10.959Z,2.70
2019-04-04T03:22:16.459Z,2.87
2019-04-04T03:27:25.652Z,3.10
2019-04-04T03:32:28.971Z,3.00
2019-04-04T03:37:34.829Z,3.50
2019-04-04T03:42:44.012Z,2.77
2019-04-04T03:47:47.281Z,3.10
2019-04-04T03:52:52.445Z,3.27
2019-04-04T03:57:58.217Z,3.13
2019-04-04T04:03:03.400Z,2.77
2019-04-04T04:08:08.664Z,3.10
2019-04-04T04:13:17.333Z,3.17
2019-04-04T04:18:21.832Z,3.50
2019-04-04T04:23:27.503Z,3.63
2019-04-04T04:28:33.016Z,3.80
2019-04-04T04:33:38.288Z,3.77
2019-04-04T04:38:43.441Z,3.70
2019-04-04T04:43:48.623Z,4.23
2019-04-04T04:48:54.093Z,4.47
2019-04-04T04:53:59.318Z,4.47
2019-04-04T04:59:04.764Z,4.97
2019-04-04T05:04:11.052Z,4.87
2019-04-04T05:09:16.237Z,4.60
2019-04-04T05:14:22.438Z,4.23
2019-04-04T05:19:27.656Z,4.30
2019-04-04T05:24:33.146Z,4.70
2019-04-04T05:29:38.463Z,4.77
2019-04-04T05:34:44.688Z,4.23
2019-04-04T05:39:51.452Z,4.83
2019-04-04T05:44:57.750Z,4.35
2019-04-04T05:50:03.521Z,4.40
2019-04-04T05:55:10.858Z,4.13
2019-04-04T06:00:16.733Z,4.28
2019-04-04T06:05:22.920Z,4.37
2019-04-04T06:10:28.190Z,4.00
2019-04-04T06:15:33.811Z,4.63
2019-04-04T06:20:39.056Z,4.43
2019-04-04T06:25:44.621Z,4.50
2019-04-04T06:30:53.624Z,4.80
2019-04-04T06:35:57.153Z,5.30
2019-04-04T06:41:02.637Z,4.93
2019-04-04T06:46:07.831Z,4.93
2019-04-04T06:51:14.237Z,5.08
2019-04-04T06:56:20.037Z,5.00
2019-04-04T07:01:25.701Z,5.45
2019-04-04T07:06:30.959Z,5.30
2019-04-04T07:11:36.996Z,4.97
2019-04-04T07:16:42.268Z,5.80
2019-04-04T07:21:49.172Z,13.88
2019-04-04T07:26:54.849Z,17.17
2019-04-04T07:32:00.120Z,18.42
2019-04-04T07:37:06.126Z,18.32
2019-04-04T07:42:11.407Z,21.00
2019-04-04T07:47:17.086Z,21.63
2019-04-04T07:52:23.780Z,26.05
2019-04-04T07:57:30.288Z,23.40
2019-04-04T08:02:36.817Z,25.75
2019-04-04T08:07:42.188Z,27.67
2019-04-04T08:12:47.433Z,29.20
2019-04-04T08:17:53.191Z,28.67
2019-04-04T08:22:58.883Z,29.32
2019-04-04T08:28:04.156Z,32.97
2019-04-04T08:33:10.157Z,31.45
2019-04-04T08:38:15.910Z,32.35
2019-04-04T08:43:21.104Z,32.20
2019-04-04T08:48:26.367Z,31.82
2019-04-04T08:53:39.780Z,32.78
2019-04-04T08:58:39.086Z,31.62
2019-04-04T09:03:44.358Z,30.77
2019-04-04T09:08:49.553Z,28.57
2019-04-04T09:13:55.170Z,30.10
2019-04-04T09:19:01.418Z,30.02
2019-04-04T09:24:06.683Z,30.65
2019-04-04T09:29:11.944Z,30.62
2019-04-04T09:34:17.624Z,30.65
2019-04-04T09:39:22.899Z,31.75
2019-04-04T09:44:28.185Z,30.02
2019-04-04T09:49:33.640Z,31.30
2019-04-04T09:54:39.263Z,31.70
2019-04-04T09:59:44.559Z,31.85
2019-04-04T10:04:49.932Z,32.00
2019-04-04T10:09:55.538Z,34.13
2019-04-04T10:15:00.814Z,35.35
2019-04-04T10:20:07.231Z,35.00
2019-04-04T10:25:13.599Z,35.60
2019-04-04T10:30:19.201Z,35.60
2019-04-04T10:35:24.695Z,38.78
2019-04-04T10:40:30.098Z,38.42
2019-04-04T10:45:35.599Z,38.10
2019-04-04T10:50:40.916Z,37.58
2019-04-04T10:55:46.218Z,37.83
2019-04-04T11:00:51.562Z,41.30
2019-04-04T11:05:56.826Z,41.58
2019-04-04T11:11:02.286Z,39.38
2019-04-04T11:16:08.718Z,40.55
2019-04-04T11:21:14.112Z,40.45
2019-04-04T11:26:19.785Z,40.25
2019-04-04T11:31:25.168Z,39.30
2019-04-04T11:36:31.313Z,35.43
2019-04-04T11:41:36.697Z,36.77
2019-04-04T11:46:42.382Z,35.73
2019-04-04T11:51:48.050Z,33.67
2019-04-04T11:56:53.320Z,31.33
2019-04-04T12:01:58.802Z,31.37
2019-04-04T12:07:04.200Z,30.12
2019-04-04T12:12:09.780Z,29.87
2019-04-04T12:17:15.453Z,30.60
2019-04-04T12:22:20.756Z,31.87
2019-04-04T12:27:26.141Z,26.20
2019-04-04T12:32:32.029Z,27.27
2019-04-04T12:37:38.200Z,26.23
2019-04-04T12:42:44.529Z,28.60
2019-04-04T12:47:49.795Z,29.32
2019-04-04T12:52:55.084Z,28.05
2019-04-04T12:58:01.914Z,29.57
2019-04-04T13:03:07.218Z,32.85
2019-04-04T13:08:14.459Z,34.20
2019-04-04T13:13:19.731Z,37.58
2019-04-04T13:18:25.195Z,39.03
2019-04-04T13:23:30.560Z,38.17
2019-04-04T13:28:36.808Z,35.68
2019-04-04T13:33:42.079Z,33.05
2019-04-04T13:38:47.382Z,30.82
2019-04-04T13:43:54.224Z,30.52
2019-04-04T13:49:00.656Z,29.37
2019-04-04T13:54:05.968Z,28.95
2019-04-04T13:59:11.829Z,27.22
2019-04-04T14:04:20.074Z,27.70
2019-04-04T14:09:24.497Z,25.92
2019-04-04T14:14:29.798Z,27.27
2019-04-04T14:19:35.104Z,25.88
2019-04-04T14:24:40.849Z,26.70
2019-04-04T14:29:46.424Z,26.50
2019-04-04T14:34:52.021Z,26.75
2019-04-04T14:39:57.299Z,26.55
2019-04-04T14:45:02.997Z,26.20
2019-04-04T14:50:10.544Z,27.32
2019-04-04T14:55:17.956Z,28.45
2019-04-04T15:00:24.437Z,28.42
2019-04-04T15:05:29.998Z,29.65
2019-04-04T15:10:38.935Z,27.70
2019-04-04T15:16:11.723Z,28.30
2019-04-04T15:21:18.352Z,28.73
2019-04-04T15:26:24.346Z,28.55
2019-04-04T15:31:30.529Z,27.98
2019-04-04T15:36:36.281Z,28.32
2019-04-04T15:41:42.560Z,27.42
2019-04-04T15:46:48.645Z,27.77
2019-04-04T15:51:54.002Z,27.27
2019-04-04T15:56:59.270Z,28.00
2019-04-04T16:02:05.151Z,27.90
2019-04-04T16:07:10.600Z,28.23
2019-04-04T16:12:17.013Z,28.80
2019-04-04T16:17:22.324Z,28.70
2019-04-04T16:22:27.900Z,30.43
2019-04-04T16:27:33.290Z,31.93
2019-04-04T16:32:38.577Z,31.23
2019-04-04T16:37:44.201Z,30.57
2019-04-04T16:42:49.763Z,30.82
2019-04-04T16:47:56.289Z,32.48
2019-04-04T16:53:01.998Z,33.45
2019-04-04T16:58:07.497Z,33.60
2019-04-04T17:03:13.866Z,35.28
2019-04-04T17:08:19.525Z,36.10
2019-04-04T17:13:25.561Z,36.13
2019-04-04T17:18:30.863Z,34.10
2019-04-04T17:23:37.069Z,36.08
2019-04-04T17:28:42.429Z,35.90
2019-04-04T17:33:48.747Z,35.68
2019-04-04T17:38:55.397Z,35.73
2019-04-04T17:44:01.353Z,33.90
2019-04-04T17:49:06.682Z,34.45
2019-04-04T17:54:13.441Z,34.23
2019-04-04T17:59:18.871Z,34.63
2019-04-04T18:04:24.559Z,32.63
2019-04-04T18:09:31.906Z,33.95
2019-04-04T18:14:37.427Z,32.58
2019-04-04T18:19:42.864Z,30.65
2019-04-04T18:24:48.552Z,29.12
2019-04-04T18:29:53.874Z,27.95
2019-04-04T18:34:59.218Z,26.82
2019-04-04T18:40:05.916Z,26.57
2019-04-04T18:45:11.463Z,26.97
2019-04-04T18:50:18.063Z,26.50
2019-04-04T18:55:23.519Z,26.50
2019-04-04T19:00:29.903Z,25.77
2019-04-04T19:05:35.552Z,25.95
2019-04-04T19:10:40.939Z,26.10
2019-04-04T19:15:46.537Z,24.67
2019-04-04T19:20:51.957Z,24.37
2019-04-04T19:25:57.715Z,25.50
2019-04-04T19:31:03.941Z,25.17
2019-04-04T19:36:09.201Z,27.20
2019-04-04T19:41:14.949Z,26.27
2019-04-04T19:46:20.293Z,27.05
2019-04-04T19:51:27.702Z,26.57
2019-04-04T19:56:33.387Z,27.43
2019-04-04T20:01:38.767Z,26.75
2019-04-04T20:06:44.048Z,27.62
2019-04-04T20:11:49.875Z,27.25
2019-04-04T20:16:55.905Z,28.13
2019-04-04T20:22:01.172Z,28.85
2019-04-04T20:27:07.583Z,29.72
2019-04-04T20:32:12.910Z,29.23
2019-04-04T20:37:19.122Z,30.10
2019-04-04T20:42:24.783Z,30.02
2019-04-04T20:47:30.054Z,31.80
2019-04-04T20:52:36.457Z,30.40
2019-04-04T20:57:42.117Z,32.10
2019-04-04T21:02:47.339Z,33.23
2019-04-04T21:07:53.411Z,33.00
2019-04-04T21:12:59.126Z,33.07
2019-04-04T21:18:04.467Z,33.85
2019-04-04T21:23:09.648Z,33.03
2019-04-04T21:28:14.938Z,33.42
2019-04-04T21:33:20.975Z,35.00
2019-04-04T21:38:26.527Z,34.40
2019-04-04T21:43:31.801Z,35.30
2019-04-04T21:48:37.069Z,34.08
2019-04-04T21:53:42.687Z,33.80
2019-04-04T21:58:48.200Z,34.13
2019-04-04T22:03:53.473Z,34.90
2019-04-04T22:08:58.751Z,33.50
2019-04-04T22:14:04.050Z,33.87
2019-04-04T22:19:09.941Z,33.85
2019-04-04T22:24:15.438Z,33.73
2019-04-04T22:29:20.694Z,33.67
2019-04-04T22:34:25.950Z,32.42
2019-04-04T22:39:31.535Z,33.03
2019-04-04T22:44:36.715Z,32.57
2019-04-04T22:49:42.468Z,31.42
2019-04-04T22:54:48.067Z,32.33
2019-04-04T22:59:53.264Z,32.50
2019-04-04T23:04:58.893Z,33.43
2019-04-04T23:10:05.001Z,32.50
2019-04-04T23:15:11.308Z,32.83
2019-04-04T23:20:16.494Z,31.63
2019-04-04T23:25:21.763Z,32.70
2019-04-04T23:30:27.227Z,33.60
2019-04-04T23:35:32.420Z,33.67
2019-04-04T23:40:38.182Z,32.90
2019-04-04T23:45:43.416Z,33.20
2019-04-04T23:50:49.038Z,32.53
2019-04-04T23:55:54.311Z,32.90
